European Causeway — C6RG7 — position and weather

sailwx.info

Track history (hours):
 
Tides and Currents Weather Stations Pressure Air Temp Water Temp Dewpoint Dewpoint Depression Visibility Wind Speed Wind Dir Waves Ship Positions

European Causeway

Operator: P & O Irish Sea

Last reported at 2017-Mar-23 11:33 UTC. Time now 2017-Mar-23 12:15 UTC.
Position N 54°59' W 005°27'.

Length 165 m; draft 5.5 m.

Type: Ship (hazmat cat A). MMSI: 311027000.

Date/timePositionNaut miles runAvg speedWind from/ knotsBaromVisibWave heightAir tempDewpointWater temp
2017-Mar-23 11:33N 54°59' W 005°27'1514.9
2017-Mar-23 10:34N 54°58' W 005°01'0 0.3
2017-Mar-23 09:33N 54°58' W 005°01'9 9.5
2017-Mar-23 08:33N 54°60' W 005°17'2018.8
2017-Mar-23 07:30N 54°51' W 005°48'0 0.1
2017-Mar-23 06:22N 54°51' W 005°48'7 9.2
2017-Mar-23 05:34N 54°55' W 005°37'2016.8
2017-Mar-23 04:23N 54°59' W 005°03'2 2.1
2017-Mar-23 03:25N 54°58' W 005°01'0 0.0
2017-Mar-23 02:31N 54°58' W 005°01'6 5.8
2017-Mar-23 01:33N 55°02' W 005°08'1818.3
2017-Mar-23 00:33N 54°55' W 005°38'7 6.7
2017-Mar-22 23:30N 54°51' W 005°48'0 0.0
2017-Mar-22 22:33N 54°51' W 005°48'3 2.7
2017-Mar-22 21:33N 54°52' W 005°44'1818.4
2017-Mar-22 20:33N 55°00' W 005°15'9 8.2
2017-Mar-22 19:30N 54°58' W 005°01'0 0.0
2017-Mar-22 18:32N 54°58' W 005°01'10 9.9
2017-Mar-22 17:33N 54°59' W 005°18'1918.6
2017-Mar-22 16:33N 54°51' W 005°48'0 0.4
2017-Mar-22 15:33N 54°51' W 005°48'1212.3
2017-Mar-22 14:33N 54°57' W 005°29'1615.7
2017-Mar-22 13:33N 54°58' W 005°02'1 1.0
2017-Mar-22 12:33N 54°58' W 005°01'1010.6
2017-Mar-22 11:33N 54°59' W 005°19'1816.2
2017-Mar-22 10:26N 54°51' W 005°48'0 0.0
2017-Mar-22 09:31N 54°51' W 005°48'1313.5
2017-Mar-22 08:34N 54°57' W 005°28'1613.9
2017-Mar-22 07:26N 54°58' W 005°01'0 0.0
2017-Mar-22 06:33N 54°58' W 005°01'5 4.6
2017-Mar-22 05:29N 55°02' W 005°06'1819.3
2017-Mar-22 04:34N 54°55' W 005°35'8 8.2
2017-Mar-22 03:33N 54°51' W 005°48'0 0.0
2017-Mar-22 02:33N 54°51' W 005°48'5 5.1
2017-Mar-22 01:33N 54°54' W 005°40'1918.5
2017-Mar-22 00:33N 55°03' W 005°12'8 3.6
2017-Mar-21 22:18N 54°58' W 005°01'810.4
2017-Mar-21 21:33N 55°00' W 005°14'2121.0
2017-Mar-21 20:33N 54°52' W 005°47'1 1.0
2017-Mar-21 19:25N 54°51' W 005°48'7 8.2
2017-Mar-21 18:33N 54°54' W 005°37'2018.3
2017-Mar-21 17:27N 54°59' W 005°03'2 2.2
2017-Mar-21 16:29N 54°58' W 005°01'8 9.1
2017-Mar-21 15:34N 54°60' W 005°15'2120.4
2017-Mar-21 14:33N 54°51' W 005°48'0 0.1
2017-Mar-21 13:33N 54°51' W 005°48'0 0.0
2017-Mar-21 12:33N 54°51' W 005°48'1616.4
2017-Mar-21 11:34N 54°58' W 005°23'1312.6
2017-Mar-21 10:33N 54°58' W 005°01'0 0.0
2017-Mar-21 09:27N 54°58' W 005°01'1011.6
2017-Mar-21 08:34N 54°58' W 005°19'1817.0
2017-Mar-21 07:30N 54°51' W 005°48'0 0.2
2017-Mar-21 06:28N 54°51' W 005°48'4 4.9
2017-Mar-21 05:33N 54°53' W 005°42'2019.2
2017-Mar-21 04:31N 55°02' W 005°10'6 6.5
2017-Mar-21 03:31N 54°58' W 005°01'0 0.0
2017-Mar-21 02:31N 54°58' W 005°01'6 5.5
2017-Mar-21 01:31N 55°02' W 005°08'1717.9
2017-Mar-21 00:34N 54°54' W 005°35'8 8.0
2017-Mar-20 23:32N 54°51' W 005°48'0 0.0
2017-Mar-20 22:26N 54°51' W 005°48'5 6.2
2017-Mar-20 21:34N 54°54' W 005°40'1817.7
2017-Mar-20 20:33N 55°01' W 005°12'7 6.8
2017-Mar-20 19:29N 54°58' W 005°01'0 0.0
2017-Mar-20 18:33N 54°58' W 005°01'1312.9
2017-Mar-20 17:33N 54°57' W 005°23'1615.6
2017-Mar-20 16:34N 54°51' W 005°48'0 0.1
2017-Mar-20 15:33N 54°51' W 005°48'1918.7
2017-Mar-20 14:34N 54°59' W 005°19'1010.3
2017-Mar-20 13:33N 54°58' W 005°01'5 4.8
2017-Mar-20 12:33N 55°02' W 005°06'2121.0
2017-Mar-20 11:33N 54°53' W 005°40'5 5.0
2017-Mar-20 10:29N 54°51' W 005°48'4 4.4
2017-Mar-20 09:33N 54°53' W 005°42'2120.9
2017-Mar-20 08:33N 55°02' W 005°09'6 6.1
2017-Mar-20 07:33N 54°58' W 005°01'3 2.8
2017-Mar-20 06:28N 55°00' W 005°04'2 2.6
2017-Mar-20 05:34N 55°02' W 005°07'1615.6
2017-Mar-20 04:33N 54°55' W 005°32'1010.2
2017-Mar-20 03:32N 54°51' W 005°48'0 0.0
2017-Mar-20 02:32N 54°51' W 005°48'0 0.0
2017-Mar-20 01:29N 54°51' W 005°48'5 5.0
2017-Mar-20 00:31N 54°54' W 005°41'1616.4
2017-Mar-19 23:33N 55°00' W 005°16'9 6.9
2017-Mar-19 22:16N 54°58' W 005°01'5 6.5
2017-Mar-19 21:27N 55°01' W 005°07'1718.3
2017-Mar-19 20:31N 54°54' W 005°35'8 8.3
2017-Mar-19 19:30N 54°51' W 005°48'0 0.0
2017-Mar-19 18:33N 54°51' W 005°48'1514.8
2017-Mar-19 17:34N 54°58' W 005°25'1414.0
2017-Mar-19 16:33N 54°58' W 005°01'0 0.0
2017-Mar-19 15:34N 54°58' W 005°01'5 5.0
2017-Mar-19 14:32N 55°01' W 005°07'1717.4
2017-Mar-19 13:33N 54°55' W 005°34'9 8.6
2017-Mar-19 12:33N 54°51' W 005°48'0 0.0
2017-Mar-19 11:21N 54°51' W 005°48'0 0.0
2017-Mar-19 10:33N 54°51' W 005°48'0 0.0
2017-Mar-19 09:33N 54°51' W 005°48'1312.9
2017-Mar-19 08:33N 54°57' W 005°28'1514.3
2017-Mar-19 07:30N 54°58' W 005°02'1 0.7
2017-Mar-19 06:33N 54°58' W 005°01'0 0.0
2017-Mar-19 05:33N 54°58' W 005°01'0 0.0
2017-Mar-19 04:33N 54°58' W 005°01'0 0.0
2017-Mar-19 03:33N 54°58' W 005°01'0 0.0
2017-Mar-19 02:33N 54°58' W 005°01'0 0.0
2017-Mar-19 01:33N 54°58' W 005°01'0 0.0
2017-Mar-19 00:33N 54°58' W 005°01'0 0.0
2017-Mar-18 23:33N 54°58' W 005°01'0 0.0
2017-Mar-18 22:33N 54°58' W 005°01'1010.0
2017-Mar-18 21:33N 54°59' W 005°18'1918.6
2017-Mar-18 20:34N 54°51' W 005°48'0 0.1
2017-Mar-18 19:33N 54°51' W 005°48'0 0.0
2017-Mar-18 18:33N 54°51' W 005°48'1111.5
2017-Mar-18 17:34N 54°56' W 005°31'1616.0
2017-Mar-18 16:33N 54°59' W 005°03'2 1.8
2017-Mar-18 15:33N 54°58' W 005°01'10 9.7
2017-Mar-18 14:34N 54°59' W 005°18'1817.8
2017-Mar-18 13:33N 54°52' W 005°46'2 1.6
2017-Mar-18 12:33N 54°51' W 005°48'1313.0
2017-Mar-18 11:34N 54°57' W 005°28'1514.8
2017-Mar-18 10:33N 54°59' W 005°03'1 1.5
2017-Mar-18 09:34N 54°58' W 005°01'1010.2
2017-Mar-18 08:33N 54°59' W 005°19'1817.4
2017-Mar-18 07:31N 54°51' W 005°48'1 0.6
2017-Mar-18 06:33N 54°51' W 005°48'5 5.2
2017-Mar-18 05:33N 54°54' W 005°40'1919.3
2017-Mar-18 04:34N 55°02' W 005°10'7 6.7
2017-Mar-18 03:32N 54°58' W 005°01'0 0.0
2017-Mar-18 02:32N 54°58' W 005°01'6 5.7
2017-Mar-18 01:33N 55°02' W 005°08'1817.9
2017-Mar-18 00:33N 54°54' W 005°36'7 7.5
2017-Mar-17 23:34N 54°51' W 005°48'0 0.0
2017-Mar-17 22:33N 54°51' W 005°48'5 4.8
2017-Mar-17 21:34N 54°53' W 005°41'1716.7
2017-Mar-17 20:33N 55°01' W 005°15'8 7.9
2017-Mar-17 19:30N 54°58' W 005°01'0 0.0
2017-Mar-17 18:33N 54°58' W 005°01'1111.2
2017-Mar-17 17:33N 54°58' W 005°20'1717.0
2017-Mar-17 16:32N 54°51' W 005°48'0 0.1
2017-Mar-17 15:33N 54°51' W 005°48'1413.9
2017-Mar-17 14:34N 54°57' W 005°27'1414.0
2017-Mar-17 13:33N 54°59' W 005°02'1 1.1
2017-Mar-17 12:33N 54°58' W 005°01'1110.6
2017-Mar-17 11:33N 54°58' W 005°19'1817.8
2017-Mar-17 10:33N 54°51' W 005°48'0 0.2
2017-Mar-17 09:33N 54°51' W 005°48'1615.8
2017-Mar-17 08:33N 54°58' W 005°24'1311.4
2017-Mar-17 07:24N 54°58' W 005°01'0 0.0
2017-Mar-17 06:33N 54°58' W 005°01'5 4.9
2017-Mar-17 05:29N 55°02' W 005°07'1718.6
2017-Mar-17 04:34N 54°54' W 005°35'8 8.1
2017-Mar-17 03:31N 54°51' W 005°48'0 0.0
2017-Mar-17 02:31N 54°51' W 005°48'2 2.3
2017-Mar-17 01:33N 54°52' W 005°45'1919.5
2017-Mar-17 00:33N 55°01' W 005°14'8 8.3
2017-Mar-16 23:34N 54°58' W 005°01'0 0.0
2017-Mar-16 22:33N 54°58' W 005°01'5 5.0
2017-Mar-16 21:32N 55°02' W 005°07'1717.3
2017-Mar-16 20:33N 54°55' W 005°34'9 8.8
2017-Mar-16 19:31N 54°51' W 005°48'0 0.0
2017-Mar-16 18:34N 54°51' W 005°48'1313.3
2017-Mar-16 17:33N 54°57' W 005°27'1414.4
2017-Mar-16 16:33N 54°59' W 005°03'1 1.5
2017-Mar-16 15:33N 54°58' W 005°01'1110.8
2017-Mar-16 14:33N 54°58' W 005°20'1817.8
2017-Mar-16 13:34N 54°51' W 005°48'0 0.1
2017-Mar-16 12:33N 54°51' W 005°48'1515.2
2017-Mar-16 11:33N 54°58' W 005°24'1313.4
2017-Mar-16 10:33N 54°58' W 005°01'0 0.0
2017-Mar-16 09:33N 54°58' W 005°01'10 9.8
2017-Mar-16 08:34N 54°59' W 005°18'1818.1
2017-Mar-16 07:33N 54°52' W 005°47'1 1.2
2017-Mar-16 06:33N 54°51' W 005°48'5 4.5
2017-Mar-16 05:33N 54°53' W 005°41'1717.5
2017-Mar-16 04:33N 55°01' W 005°14'8 7.9
2017-Mar-16 03:33N 54°58' W 005°01'0 0.0
2017-Mar-16 02:33N 54°58' W 005°01'5 4.8
2017-Mar-16 01:30N 55°02' W 005°07'1718.4
2017-Mar-16 00:34N 54°54' W 005°34'9 8.7
2017-Mar-15 23:33N 54°51' W 005°48'0 0.0
2017-Mar-15 22:33N 54°51' W 005°48'6 5.6
2017-Mar-15 21:33N 54°54' W 005°40'1717.4
2017-Mar-15 20:33N 55°01' W 005°12'7 5.3
2017-Mar-15 19:15N 54°58' W 005°01'0 0.0
2017-Mar-15 18:34N 54°58' W 005°01'1212.5
2017-Mar-15 17:33N 54°57' W 005°23'1615.9
2017-Mar-15 16:33N 54°51' W 005°48'0 0.0
2017-Mar-15 15:33N 54°51' W 005°48'1515.2
2017-Mar-15 14:33N 54°58' W 005°25'1413.7
2017-Mar-15 13:33N 54°58' W 005°01'0 0.0
2017-Mar-15 12:33N 54°58' W 005°01'1110.5
2017-Mar-15 11:33N 54°58' W 005°19'1817.8
2017-Mar-15 10:33N 54°51' W 005°48'1 0.5
2017-Mar-15 09:33N 54°51' W 005°48'1615.5
2017-Mar-15 08:33N 54°58' W 005°24'1312.1
2017-Mar-15 07:28N 54°58' W 005°01'0 0.0
2017-Mar-15 06:33N 54°58' W 005°01'5 4.9
2017-Mar-15 05:27N 55°02' W 005°08'1617.7
2017-Mar-15 04:33N 54°56' W 005°33'10 9.7
2017-Mar-15 03:33N 54°51' W 005°48'0 0.0
2017-Mar-15 02:33N 54°51' W 005°48'5 4.6
2017-Mar-15 01:33N 54°53' W 005°41'1817.6
2017-Mar-15 00:33N 55°01' W 005°14'8 7.9
2017-Mar-14 23:33N 54°58' W 005°01'0 0.0
2017-Mar-14 22:33N 54°58' W 005°01'5 5.2
2017-Mar-14 21:33N 55°02' W 005°07'1716.9
2017-Mar-14 20:33N 54°54' W 005°34'9 8.1
2017-Mar-14 19:28N 54°51' W 005°48'0 0.0
2017-Mar-14 18:33N 54°51' W 005°48'1312.6
2017-Mar-14 17:33N 54°58' W 005°29'1515.2
2017-Mar-14 16:33N 54°59' W 005°03'2 2.0
2017-Mar-14 15:32N 54°58' W 005°01'1010.5
2017-Mar-14 14:34N 54°59' W 005°19'1818.4
2017-Mar-14 13:33N 54°51' W 005°48'0 0.1
2017-Mar-14 12:33N 54°51' W 005°48'1413.7
2017-Mar-14 11:33N 54°59' W 005°28'1514.7
2017-Mar-14 10:34N 54°59' W 005°03'2 1.5
2017-Mar-14 09:33N 54°58' W 005°01'1010.1
2017-Mar-14 08:34N 54°58' W 005°18'1817.6
2017-Mar-14 07:31N 54°51' W 005°48'0 0.1
2017-Mar-14 06:33N 54°51' W 005°48'3 3.0
2017-Mar-14 05:33N 54°53' W 005°44'1919.2
2017-Mar-14 04:34N 55°01' W 005°13'8 7.8
2017-Mar-14 03:33N 54°58' W 005°01'0 0.0
2017-Mar-14 02:33N 54°58' W 005°01'5 4.7
2017-Mar-14 01:29N 55°02' W 005°06'1718.1
2017-Mar-14 00:33N 54°55' W 005°33'9 9.3
2017-Mar-13 23:33N 54°51' W 005°48'0 0.0
2017-Mar-13 22:33N 54°51' W 005°48'4 4.2
2017-Mar-13 21:33N 54°53' W 005°42'1616.1
2017-Mar-13 20:33N 54°60' W 005°16'9 9.1
2017-Mar-13 19:33N 54°58' W 005°01'0 0.0
2017-Mar-13 18:33N 54°58' W 005°01'1010.1
2017-Mar-13 17:33N 54°59' W 005°18'1918.5
2017-Mar-13 16:34N 54°51' W 005°48'0 0.1
2017-Mar-13 15:33N 54°51' W 005°48'1212.5
2017-Mar-13 14:34N 54°57' W 005°29'1514.9
2017-Mar-13 13:34N 54°59' W 005°03'2 2.1
2017-Mar-13 12:33N 54°58' W 005°01'10 9.8
2017-Mar-13 11:34N 54°59' W 005°18'  
Track history (hours):
 
Tides and Currents Weather Stations Pressure Air Temp Water Temp Dewpoint Dewpoint Depression Visibility Wind Speed Wind Dir Waves Ship Positions

European Causeway

Operator: P & O Irish Sea

Last reported at 2017-Mar-23 11:33 UTC. Time now 2017-Mar-23 12:15 UTC.
Position N 54°59' W 005°27'.

Length 165 m; draft 5.5 m.

Type: Ship (hazmat cat A). MMSI: 311027000.

Date/timePositionNaut miles runAvg speedWind from/ knotsBaromVisibWave heightAir tempDewpointWater temp
2017-Mar-23 11:33N 54°59' W 005°27'1514.9
2017-Mar-23 10:34N 54°58' W 005°01'0 0.3
2017-Mar-23 09:33N 54°58' W 005°01'9 9.5
2017-Mar-23 08:33N 54°60' W 005°17'2018.8
2017-Mar-23 07:30N 54°51' W 005°48'0 0.1
2017-Mar-23 06:22N 54°51' W 005°48'7 9.2
2017-Mar-23 05:34N 54°55' W 005°37'2016.8
2017-Mar-23 04:23N 54°59' W 005°03'2 2.1
2017-Mar-23 03:25N 54°58' W 005°01'0 0.0
2017-Mar-23 02:31N 54°58' W 005°01'6 5.8
2017-Mar-23 01:33N 55°02' W 005°08'1818.3
2017-Mar-23 00:33N 54°55' W 005°38'7 6.7
2017-Mar-22 23:30N 54°51' W 005°48'0 0.0
2017-Mar-22 22:33N 54°51' W 005°48'3 2.7
2017-Mar-22 21:33N 54°52' W 005°44'1818.4
2017-Mar-22 20:33N 55°00' W 005°15'9 8.2
2017-Mar-22 19:30N 54°58' W 005°01'0 0.0
2017-Mar-22 18:32N 54°58' W 005°01'10 9.9
2017-Mar-22 17:33N 54°59' W 005°18'1918.6
2017-Mar-22 16:33N 54°51' W 005°48'0 0.4
2017-Mar-22 15:33N 54°51' W 005°48'1212.3
2017-Mar-22 14:33N 54°57' W 005°29'1615.7
2017-Mar-22 13:33N 54°58' W 005°02'1 1.0
2017-Mar-22 12:33N 54°58' W 005°01'1010.6
2017-Mar-22 11:33N 54°59' W 005°19'1816.2
2017-Mar-22 10:26N 54°51' W 005°48'0 0.0
2017-Mar-22 09:31N 54°51' W 005°48'1313.5
2017-Mar-22 08:34N 54°57' W 005°28'1613.9
2017-Mar-22 07:26N 54°58' W 005°01'0 0.0
2017-Mar-22 06:33N 54°58' W 005°01'5 4.6
2017-Mar-22 05:29N 55°02' W 005°06'1819.3
2017-Mar-22 04:34N 54°55' W 005°35'8 8.2
2017-Mar-22 03:33N 54°51' W 005°48'0 0.0
2017-Mar-22 02:33N 54°51' W 005°48'5 5.1
2017-Mar-22 01:33N 54°54' W 005°40'1918.5
2017-Mar-22 00:33N 55°03' W 005°12'8 3.6
2017-Mar-21 22:18N 54°58' W 005°01'810.4
2017-Mar-21 21:33N 55°00' W 005°14'2121.0
2017-Mar-21 20:33N 54°52' W 005°47'1 1.0
2017-Mar-21 19:25N 54°51' W 005°48'7 8.2
2017-Mar-21 18:33N 54°54' W 005°37'2018.3
2017-Mar-21 17:27N 54°59' W 005°03'2 2.2
2017-Mar-21 16:29N 54°58' W 005°01'8 9.1
2017-Mar-21 15:34N 54°60' W 005°15'2120.4
2017-Mar-21 14:33N 54°51' W 005°48'0 0.1
2017-Mar-21 13:33N 54°51' W 005°48'0 0.0
2017-Mar-21 12:33N 54°51' W 005°48'1616.4
2017-Mar-21 11:34N 54°58' W 005°23'1312.6
2017-Mar-21 10:33N 54°58' W 005°01'0 0.0
2017-Mar-21 09:27N 54°58' W 005°01'1011.6
2017-Mar-21 08:34N 54°58' W 005°19'1817.0
2017-Mar-21 07:30N 54°51' W 005°48'0 0.2
2017-Mar-21 06:28N 54°51' W 005°48'4 4.9
2017-Mar-21 05:33N 54°53' W 005°42'2019.2
2017-Mar-21 04:31N 55°02' W 005°10'6 6.5
2017-Mar-21 03:31N 54°58' W 005°01'0 0.0
2017-Mar-21 02:31N 54°58' W 005°01'6 5.5
2017-Mar-21 01:31N 55°02' W 005°08'1717.9
2017-Mar-21 00:34N 54°54' W 005°35'8 8.0
2017-Mar-20 23:32N 54°51' W 005°48'0 0.0
2017-Mar-20 22:26N 54°51' W 005°48'5 6.2
2017-Mar-20 21:34N 54°54' W 005°40'1817.7
2017-Mar-20 20:33N 55°01' W 005°12'7 6.8
2017-Mar-20 19:29N 54°58' W 005°01'0 0.0
2017-Mar-20 18:33N 54°58' W 005°01'1312.9
2017-Mar-20 17:33N 54°57' W 005°23'1615.6
2017-Mar-20 16:34N 54°51' W 005°48'0 0.1
2017-Mar-20 15:33N 54°51' W 005°48'1918.7
2017-Mar-20 14:34N 54°59' W 005°19'1010.3
2017-Mar-20 13:33N 54°58' W 005°01'5 4.8
2017-Mar-20 12:33N 55°02' W 005°06'2121.0
2017-Mar-20 11:33N 54°53' W 005°40'5 5.0
2017-Mar-20 10:29N 54°51' W 005°48'4 4.4
2017-Mar-20 09:33N 54°53' W 005°42'2120.9
2017-Mar-20 08:33N 55°02' W 005°09'6 6.1
2017-Mar-20 07:33N 54°58' W 005°01'3 2.8
2017-Mar-20 06:28N 55°00' W 005°04'2 2.6
2017-Mar-20 05:34N 55°02' W 005°07'1615.6
2017-Mar-20 04:33N 54°55' W 005°32'1010.2
2017-Mar-20 03:32N 54°51' W 005°48'0 0.0
2017-Mar-20 02:32N 54°51' W 005°48'0 0.0
2017-Mar-20 01:29N 54°51' W 005°48'5 5.0
2017-Mar-20 00:31N 54°54' W 005°41'1616.4
2017-Mar-19 23:33N 55°00' W 005°16'9 6.9
2017-Mar-19 22:16N 54°58' W 005°01'5 6.5
2017-Mar-19 21:27N 55°01' W 005°07'1718.3
2017-Mar-19 20:31N 54°54' W 005°35'8 8.3
2017-Mar-19 19:30N 54°51' W 005°48'0 0.0
2017-Mar-19 18:33N 54°51' W 005°48'1514.8
2017-Mar-19 17:34N 54°58' W 005°25'1414.0
2017-Mar-19 16:33N 54°58' W 005°01'0 0.0
2017-Mar-19 15:34N 54°58' W 005°01'5 5.0
2017-Mar-19 14:32N 55°01' W 005°07'1717.4
2017-Mar-19 13:33N 54°55' W 005°34'9 8.6
2017-Mar-19 12:33N 54°51' W 005°48'0 0.0
2017-Mar-19 11:21N 54°51' W 005°48'0 0.0
2017-Mar-19 10:33N 54°51' W 005°48'0 0.0
2017-Mar-19 09:33N 54°51' W 005°48'1312.9
2017-Mar-19 08:33N 54°57' W 005°28'1514.3
2017-Mar-19 07:30N 54°58' W 005°02'1 0.7
2017-Mar-19 06:33N 54°58' W 005°01'0 0.0
2017-Mar-19 05:33N 54°58' W 005°01'0 0.0
2017-Mar-19 04:33N 54°58' W 005°01'0 0.0
2017-Mar-19 03:33N 54°58' W 005°01'0 0.0
2017-Mar-19 02:33N 54°58' W 005°01'0 0.0
2017-Mar-19 01:33N 54°58' W 005°01'0 0.0
2017-Mar-19 00:33N 54°58' W 005°01'0 0.0
2017-Mar-18 23:33N 54°58' W 005°01'0 0.0
2017-Mar-18 22:33N 54°58' W 005°01'1010.0
2017-Mar-18 21:33N 54°59' W 005°18'1918.6
2017-Mar-18 20:34N 54°51' W 005°48'0 0.1
2017-Mar-18 19:33N 54°51' W 005°48'0 0.0
2017-Mar-18 18:33N 54°51' W 005°48'1111.5
2017-Mar-18 17:34N 54°56' W 005°31'1616.0
2017-Mar-18 16:33N 54°59' W 005°03'2 1.8
2017-Mar-18 15:33N 54°58' W 005°01'10 9.7
2017-Mar-18 14:34N 54°59' W 005°18'1817.8
2017-Mar-18 13:33N 54°52' W 005°46'2 1.6
2017-Mar-18 12:33N 54°51' W 005°48'1313.0
2017-Mar-18 11:34N 54°57' W 005°28'1514.8
2017-Mar-18 10:33N 54°59' W 005°03'1 1.5
2017-Mar-18 09:34N 54°58' W 005°01'1010.2
2017-Mar-18 08:33N 54°59' W 005°19'1817.4
2017-Mar-18 07:31N 54°51' W 005°48'1 0.6
2017-Mar-18 06:33N 54°51' W 005°48'5 5.2
2017-Mar-18 05:33N 54°54' W 005°40'1919.3
2017-Mar-18 04:34N 55°02' W 005°10'7 6.7
2017-Mar-18 03:32N 54°58' W 005°01'0 0.0
2017-Mar-18 02:32N 54°58' W 005°01'6 5.7
2017-Mar-18 01:33N 55°02' W 005°08'1817.9
2017-Mar-18 00:33N 54°54' W 005°36'7 7.5
2017-Mar-17 23:34N 54°51' W 005°48'0 0.0
2017-Mar-17 22:33N 54°51' W 005°48'5 4.8
2017-Mar-17 21:34N 54°53' W 005°41'1716.7
2017-Mar-17 20:33N 55°01' W 005°15'8 7.9
2017-Mar-17 19:30N 54°58' W 005°01'0 0.0
2017-Mar-17 18:33N 54°58' W 005°01'1111.2
2017-Mar-17 17:33N 54°58' W 005°20'1717.0
2017-Mar-17 16:32N 54°51' W 005°48'0 0.1
2017-Mar-17 15:33N 54°51' W 005°48'1413.9
2017-Mar-17 14:34N 54°57' W 005°27'1414.0
2017-Mar-17 13:33N 54°59' W 005°02'1 1.1
2017-Mar-17 12:33N 54°58' W 005°01'1110.6
2017-Mar-17 11:33N 54°58' W 005°19'1817.8
2017-Mar-17 10:33N 54°51' W 005°48'0 0.2
2017-Mar-17 09:33N 54°51' W 005°48'1615.8
2017-Mar-17 08:33N 54°58' W 005°24'1311.4
2017-Mar-17 07:24N 54°58' W 005°01'0 0.0
2017-Mar-17 06:33N 54°58' W 005°01'5 4.9
2017-Mar-17 05:29N 55°02' W 005°07'1718.6
2017-Mar-17 04:34N 54°54' W 005°35'8 8.1
2017-Mar-17 03:31N 54°51' W 005°48'0 0.0
2017-Mar-17 02:31N 54°51' W 005°48'2 2.3
2017-Mar-17 01:33N 54°52' W 005°45'1919.5
2017-Mar-17 00:33N 55°01' W 005°14'8 8.3
2017-Mar-16 23:34N 54°58' W 005°01'0 0.0
2017-Mar-16 22:33N 54°58' W 005°01'5 5.0
2017-Mar-16 21:32N 55°02' W 005°07'1717.3
2017-Mar-16 20:33N 54°55' W 005°34'9 8.8
2017-Mar-16 19:31N 54°51' W 005°48'0 0.0
2017-Mar-16 18:34N 54°51' W 005°48'1313.3
2017-Mar-16 17:33N 54°57' W 005°27'1414.4
2017-Mar-16 16:33N 54°59' W 005°03'1 1.5
2017-Mar-16 15:33N 54°58' W 005°01'1110.8
2017-Mar-16 14:33N 54°58' W 005°20'1817.8
2017-Mar-16 13:34N 54°51' W 005°48'0 0.1
2017-Mar-16 12:33N 54°51' W 005°48'1515.2
2017-Mar-16 11:33N 54°58' W 005°24'1313.4
2017-Mar-16 10:33N 54°58' W 005°01'0 0.0
2017-Mar-16 09:33N 54°58' W 005°01'10 9.8
2017-Mar-16 08:34N 54°59' W 005°18'1818.1
2017-Mar-16 07:33N 54°52' W 005°47'1 1.2
2017-Mar-16 06:33N 54°51' W 005°48'5 4.5
2017-Mar-16 05:33N 54°53' W 005°41'1717.5
2017-Mar-16 04:33N 55°01' W 005°14'8 7.9
2017-Mar-16 03:33N 54°58' W 005°01'0 0.0
2017-Mar-16 02:33N 54°58' W 005°01'5 4.8
2017-Mar-16 01:30N 55°02' W 005°07'1718.4
2017-Mar-16 00:34N 54°54' W 005°34'9 8.7
2017-Mar-15 23:33N 54°51' W 005°48'0 0.0
2017-Mar-15 22:33N 54°51' W 005°48'6 5.6
2017-Mar-15 21:33N 54°54' W 005°40'1717.4
2017-Mar-15 20:33N 55°01' W 005°12'7 5.3
2017-Mar-15 19:15N 54°58' W 005°01'0 0.0
2017-Mar-15 18:34N 54°58' W 005°01'1212.5
2017-Mar-15 17:33N 54°57' W 005°23'1615.9
2017-Mar-15 16:33N 54°51' W 005°48'0 0.0
2017-Mar-15 15:33N 54°51' W 005°48'1515.2
2017-Mar-15 14:33N 54°58' W 005°25'1413.7
2017-Mar-15 13:33N 54°58' W 005°01'0 0.0
2017-Mar-15 12:33N 54°58' W 005°01'1110.5
2017-Mar-15 11:33N 54°58' W 005°19'1817.8
2017-Mar-15 10:33N 54°51' W 005°48'1 0.5
2017-Mar-15 09:33N 54°51' W 005°48'1615.5
2017-Mar-15 08:33N 54°58' W 005°24'1312.1
2017-Mar-15 07:28N 54°58' W 005°01'0 0.0
2017-Mar-15 06:33N 54°58' W 005°01'5 4.9
2017-Mar-15 05:27N 55°02' W 005°08'1617.7
2017-Mar-15 04:33N 54°56' W 005°33'10 9.7
2017-Mar-15 03:33N 54°51' W 005°48'0 0.0
2017-Mar-15 02:33N 54°51' W 005°48'5 4.6
2017-Mar-15 01:33N 54°53' W 005°41'1817.6
2017-Mar-15 00:33N 55°01' W 005°14'8 7.9
2017-Mar-14 23:33N 54°58' W 005°01'0 0.0
2017-Mar-14 22:33N 54°58' W 005°01'5 5.2
2017-Mar-14 21:33N 55°02' W 005°07'1716.9
2017-Mar-14 20:33N 54°54' W 005°34'9 8.1
2017-Mar-14 19:28N 54°51' W 005°48'0 0.0
2017-Mar-14 18:33N 54°51' W 005°48'1312.6
2017-Mar-14 17:33N 54°58' W 005°29'1515.2
2017-Mar-14 16:33N 54°59' W 005°03'2 2.0
2017-Mar-14 15:32N 54°58' W 005°01'1010.5
2017-Mar-14 14:34N 54°59' W 005°19'1818.4
2017-Mar-14 13:33N 54°51' W 005°48'0 0.1
2017-Mar-14 12:33N 54°51' W 005°48'1413.7
2017-Mar-14 11:33N 54°59' W 005°28'1514.7
2017-Mar-14 10:34N 54°59' W 005°03'2 1.5
2017-Mar-14 09:33N 54°58' W 005°01'1010.1
2017-Mar-14 08:34N 54°58' W 005°18'1817.6
2017-Mar-14 07:31N 54°51' W 005°48'0 0.1
2017-Mar-14 06:33N 54°51' W 005°48'3 3.0
2017-Mar-14 05:33N 54°53' W 005°44'1919.2
2017-Mar-14 04:34N 55°01' W 005°13'8 7.8
2017-Mar-14 03:33N 54°58' W 005°01'0 0.0
2017-Mar-14 02:33N 54°58' W 005°01'5 4.7
2017-Mar-14 01:29N 55°02' W 005°06'1718.1
2017-Mar-14 00:33N 54°55' W 005°33'9 9.3
2017-Mar-13 23:33N 54°51' W 005°48'0 0.0
2017-Mar-13 22:33N 54°51' W 005°48'4 4.2
2017-Mar-13 21:33N 54°53' W 005°42'1616.1
2017-Mar-13 20:33N 54°60' W 005°16'9 9.1
2017-Mar-13 19:33N 54°58' W 005°01'0 0.0
2017-Mar-13 18:33N 54°58' W 005°01'1010.1
2017-Mar-13 17:33N 54°59' W 005°18'1918.5
2017-Mar-13 16:34N 54°51' W 005°48'0 0.1
2017-Mar-13 15:33N 54°51' W 005°48'1212.5
2017-Mar-13 14:34N 54°57' W 005°29'1514.9
2017-Mar-13 13:34N 54°59' W 005°03'2 2.1
2017-Mar-13 12:33N 54°58' W 005°01'10 9.8
2017-Mar-13 11:34N 54°59' W 005°18'  

Dump ship's entire track history